sensor_id;sensor_type;location;lat;lon;timestamp;P1;P2;P0
76238;PMS7003;65043;48.392;-4.472;2022-12-07T00:02:01;23.25;20.00;14.00
76238;PMS7003;65043;48.392;-4.472;2022-12-07T00:04:26;23.00;17.50;13.00
76238;PMS7003;65043;48.392;-4.472;2022-12-07T00:06:51;19.00;17.00;13.00
76238;PMS7003;65043;48.392;-4.472;2022-12-07T00:09:18;25.00;20.25;11.75
76238;PMS7003;65043;48.392;-4.472;2022-12-07T00:11:44;26.75;18.75;11.75
76238;PMS7003;65043;48.392;-4.472;2022-12-07T00:14:14;22.75;18.00;12.75
76238;PMS7003;65043;48.392;-4.472;2022-12-07T00:16:41;21.75;16.25;11.25
76238;PMS7003;65043;48.392;-4.472;2022-12-07T00:19:08;26.75;20.00;10.50
76238;PMS7003;65043;48.392;-4.472;2022-12-07T00:21:37;21.25;17.25;10.25
76238;PMS7003;65043;48.392;-4.472;2022-12-07T00:24:04;20.25;16.25;10.00
76238;PMS7003;65043;48.392;-4.472;2022-12-07T00:26:31;19.25;16.50;10.00
76238;PMS7003;65043;48.392;-4.472;2022-12-07T00:28:59;22.25;17.00;9.50
76238;PMS7003;65043;48.392;-4.472;2022-12-07T00:31:26;22.25;15.75;8.00
76238;PMS7003;65043;48.392;-4.472;2022-12-07T00:33:54;21.00;16.50;9.00
76238;PMS7003;65043;48.392;-4.472;2022-12-07T00:36:21;18.25;16.75;10.00
76238;PMS7003;65043;48.392;-4.472;2022-12-07T00:38:48;14.00;13.75;8.00
76238;PMS7003;65043;48.392;-4.472;2022-12-07T00:41:15;23.75;17.25;9.50
76238;PMS7003;65043;48.392;-4.472;2022-12-07T00:43:43;16.50;14.00;8.00
76238;PMS7003;65043;48.392;-4.472;2022-12-07T00:46:09;16.00;14.50;9.00
76238;PMS7003;65043;48.392;-4.472;2022-12-07T00:48:38;15.00;14.00;8.00
76238;PMS7003;65043;48.392;-4.472;2022-12-07T00:51:04;13.75;13.50;7.50
76238;PMS7003;65043;48.392;-4.472;2022-12-07T00:53:30;18.25;14.75;9.00
76238;PMS7003;65043;48.392;-4.472;2022-12-07T00:55:56;12.75;11.00;8.75
76238;PMS7003;65043;48.392;-4.472;2022-12-07T00:58:22;13.25;13.00;9.00
76238;PMS7003;65043;48.392;-4.472;2022-12-07T01:00:48;15.75;13.00;8.00
76238;PMS7003;65043;48.392;-4.472;2022-12-07T01:03:14;13.50;13.00;8.00
76238;PMS7003;65043;48.392;-4.472;2022-12-07T01:05:48;16.50;11.50;7.50
76238;PMS7003;65043;48.392;-4.472;2022-12-07T01:08:18;21.75;14.00;8.75
76238;PMS7003;65043;48.392;-4.472;2022-12-07T01:10:44;15.00;12.00;7.25
76238;PMS7003;65043;48.392;-4.472;2022-12-07T01:13:10;13.75;12.75;7.75
76238;PMS7003;65043;48.392;-4.472;2022-12-07T01:15:38;17.25;14.00;8.00
76238;PMS7003;65043;48.392;-4.472;2022-12-07T01:18:05;12.50;9.75;7.00
76238;PMS7003;65043;48.392;-4.472;2022-12-07T01:20:30;13.50;13.25;7.75
76238;PMS7003;65043;48.392;-4.472;2022-12-07T01:22:56;16.25;12.50;8.00
76238;PMS7003;65043;48.392;-4.472;2022-12-07T01:25:21;14.00;9.25;7.00
76238;PMS7003;65043;48.392;-4.472;2022-12-07T01:27:47;12.00;9.00;7.00
76238;PMS7003;65043;48.392;-4.472;2022-12-07T01:30:12;14.50;12.25;8.00
76238;PMS7003;65043;48.392;-4.472;2022-12-07T01:32:41;14.50;10.50;8.00
76238;PMS7003;65043;48.392;-4.472;2022-12-07T01:35:06;15.50;11.00;6.50
76238;PMS7003;65043;48.392;-4.472;2022-12-07T01:37:36;12.75;12.75;8.25
76238;PMS7003;65043;48.392;-4.472;2022-12-07T01:40:03;11.50;9.25;6.00
76238;PMS7003;65043;48.392;-4.472;2022-12-07T01:42:33;14.25;10.00;7.25
76238;PMS7003;65043;48.392;-4.472;2022-12-07T01:47:43;9.25;9.00;5.25
76238;PMS7003;65043;48.392;-4.472;2022-12-07T01:50:20;10.50;9.00;4.75
76238;PMS7003;65043;48.392;-4.472;2022-12-07T01:52:49;9.75;8.00;5.00
76238;PMS7003;65043;48.392;-4.472;2022-12-07T01:55:18;8.75;8.00;5.50
76238;PMS7003;65043;48.392;-4.472;2022-12-07T01:57:45;9.50;9.00;5.25
76238;PMS7003;65043;48.392;-4.472;2022-12-07T02:00:13;12.00;9.50;4.50
76238;PMS7003;65043;48.392;-4.472;2022-12-07T02:02:44;13.75;10.00;5.50
76238;PMS7003;65043;48.392;-4.472;2022-12-07T02:05:17;12.00;8.00;5.00
76238;PMS7003;65043;48.392;-4.472;2022-12-07T02:07:44;15.50;13.00;5.25
76238;PMS7003;65043;48.392;-4.472;2022-12-07T02:10:15;9.00;8.75;5.25
76238;PMS7003;65043;48.392;-4.472;2022-12-07T02:12:44;8.50;8.50;5.25
76238;PMS7003;65043;48.392;-4.472;2022-12-07T02:15:13;11.00;9.00;6.00
76238;PMS7003;65043;48.392;-4.472;2022-12-07T02:17:42;11.25;10.00;7.00
76238;PMS7003;65043;48.392;-4.472;2022-12-07T02:20:33;13.00;7.00;3.75
76238;PMS7003;65043;48.392;-4.472;2022-12-07T02:29:24;14.50;10.00;6.75
76238;PMS7003;65043;48.392;-4.472;2022-12-07T02:34:29;14.00;11.00;7.00
76238;PMS7003;65043;48.392;-4.472;2022-12-07T02:40:11;8.25;8.25;5.25
76238;PMS7003;65043;48.392;-4.472;2022-12-07T02:42:45;14.75;9.75;5.50
76238;PMS7003;65043;48.392;-4.472;2022-12-07T02:45:17;10.00;10.00;5.25
76238;PMS7003;65043;48.392;-4.472;2022-12-07T02:47:45;11.25;8.75;5.25
76238;PMS7003;65043;48.392;-4.472;2022-12-07T02:50:17;13.50;10.75;7.75
76238;PMS7003;65043;48.392;-4.472;2022-12-07T02:52:45;8.00;8.00;5.25
76238;PMS7003;65043;48.392;-4.472;2022-12-07T02:55:10;9.50;7.75;4.00
76238;PMS7003;65043;48.392;-4.472;2022-12-07T02:57:41;12.75;9.25;4.00
76238;PMS7003;65043;48.392;-4.472;2022-12-07T03:00:17;15.00;9.75;7.00
76238;PMS7003;65043;48.392;-4.472;2022-12-07T03:03:27;9.00;8.00;4.50
76238;PMS7003;65043;48.392;-4.472;2022-12-07T03:05:45;11.25;7.75;5.25
76238;PMS7003;65043;48.392;-4.472;2022-12-07T03:08:17;8.50;7.75;4.00
76238;PMS7003;65043;48.392;-4.472;2022-12-07T03:10:58;8.25;7.00;4.00
76238;PMS7003;65043;48.392;-4.472;2022-12-07T03:21:38;8.25;8.25;5.25
76238;PMS7003;65043;48.392;-4.472;2022-12-07T03:24:09;9.00;7.75;5.25
76238;PMS7003;65043;48.392;-4.472;2022-12-07T03:26:43;8.25;5.50;3.25
76238;PMS7003;65043;48.392;-4.472;2022-12-07T03:29:15;7.00;7.00;5.25
76238;PMS7003;65043;48.392;-4.472;2022-12-07T03:31:48;9.50;8.50;5.25
76238;PMS7003;65043;48.392;-4.472;2022-12-07T03:34:29;12.75;8.25;4.25
76238;PMS7003;65043;48.392;-4.472;2022-12-07T03:37:12;10.25;8.00;4.00
76238;PMS7003;65043;48.392;-4.472;2022-12-07T03:42:48;12.00;8.25;5.25
76238;PMS7003;65043;48.392;-4.472;2022-12-07T03:45:15;8.50;8.50;5.25
76238;PMS7003;65043;48.392;-4.472;2022-12-07T03:48:02;14.00;10.50;5.25
76238;PMS7003;65043;48.392;-4.472;2022-12-07T03:50:41;12.00;12.00;7.00
76238;PMS7003;65043;48.392;-4.472;2022-12-07T03:53:24;11.25;11.25;7.25
76238;PMS7003;65043;48.392;-4.472;2022-12-07T03:55:54;11.00;10.00;7.00
76238;PMS7003;65043;48.392;-4.472;2022-12-07T03:58:23;18.25;12.75;8.00
76238;PMS7003;65043;48.392;-4.472;2022-12-07T04:00:50;12.50;10.50;8.00
76238;PMS7003;65043;48.392;-4.472;2022-12-07T04:03:17;19.25;13.00;7.75
76238;PMS7003;65043;48.392;-4.472;2022-12-07T04:05:42;17.50;13.00;8.00
76238;PMS7003;65043;48.392;-4.472;2022-12-07T04:08:08;15.50;13.25;8.00
76238;PMS7003;65043;48.392;-4.472;2022-12-07T04:10:33;15.25;11.75;8.00
76238;PMS7003;65043;48.392;-4.472;2022-12-07T04:12:59;15.75;15.25;8.00
76238;PMS7003;65043;48.392;-4.472;2022-12-07T04:15:24;15.00;11.50;8.00
76238;PMS7003;65043;48.392;-4.472;2022-12-07T04:17:50;16.50;14.00;8.00
76238;PMS7003;65043;48.392;-4.472;2022-12-07T04:20:15;15.25;9.75;4.25
76238;PMS7003;65043;48.392;-4.472;2022-12-07T04:22:41;13.00;10.50;7.00
76238;PMS7003;65043;48.392;-4.472;2022-12-07T04:25:06;12.00;9.75;7.00
76238;PMS7003;65043;48.392;-4.472;2022-12-07T04:27:32;22.00;16.00;9.00
76238;PMS7003;65043;48.392;-4.472;2022-12-07T04:29:57;13.50;10.75;7.25
76238;PMS7003;65043;48.392;-4.472;2022-12-07T04:32:23;14.25;10.50;7.00
76238;PMS7003;65043;48.392;-4.472;2022-12-07T04:34:49;15.75;13.00;8.00
76238;PMS7003;65043;48.392;-4.472;2022-12-07T04:37:14;17.25;10.50;7.00
76238;PMS7003;65043;48.392;-4.472;2022-12-07T04:39:40;12.50;10.75;7.75
76238;PMS7003;65043;48.392;-4.472;2022-12-07T04:42:05;10.75;10.75;8.50
76238;PMS7003;65043;48.392;-4.472;2022-12-07T04:44:31;11.25;9.00;7.25
76238;PMS7003;65043;48.392;-4.472;2022-12-07T04:46:56;14.00;11.50;8.00
76238;PMS7003;65043;48.392;-4.472;2022-12-07T04:49:22;9.50;8.00;5.25
76238;PMS7003;65043;48.392;-4.472;2022-12-07T04:51:49;14.50;10.25;7.25
76238;PMS7003;65043;48.392;-4.472;2022-12-07T04:54:15;10.75;10.75;5.75
76238;PMS7003;65043;48.392;-4.472;2022-12-07T04:56:41;14.50;11.00;7.00
76238;PMS7003;65043;48.392;-4.472;2022-12-07T04:59:07;8.00;7.75;5.25
76238;PMS7003;65043;48.392;-4.472;2022-12-07T05:01:34;8.25;8.00;5.25
76238;PMS7003;65043;48.392;-4.472;2022-12-07T05:04:00;9.25;8.00;5.25
76238;PMS7003;65043;48.392;-4.472;2022-12-07T05:06:25;10.75;8.00;5.25
76238;PMS7003;65043;48.392;-4.472;2022-12-07T05:08:51;9.00;7.25;5.00
76238;PMS7003;65043;48.392;-4.472;2022-12-07T05:11:16;9.25;6.75;4.25
76238;PMS7003;65043;48.392;-4.472;2022-12-07T05:14:01;5.75;5.75;3.00
76238;PMS7003;65043;48.392;-4.472;2022-12-07T05:16:28;11.00;9.75;5.25
76238;PMS7003;65043;48.392;-4.472;2022-12-07T05:18:54;7.25;7.25;4.00
76238;PMS7003;65043;48.392;-4.472;2022-12-07T05:21:19;10.50;8.25;5.00
76238;PMS7003;65043;48.392;-4.472;2022-12-07T05:23:45;8.00;7.00;4.00
76238;PMS7003;65043;48.392;-4.472;2022-12-07T05:26:10;11.25;7.75;4.25
76238;PMS7003;65043;48.392;-4.472;2022-12-07T05:28:36;10.00;8.25;4.00
76238;PMS7003;65043;48.392;-4.472;2022-12-07T05:31:01;11.00;10.00;7.00
76238;PMS7003;65043;48.392;-4.472;2022-12-07T05:33:27;13.75;12.00;7.75
76238;PMS7003;65043;48.392;-4.472;2022-12-07T05:35:52;15.00;14.25;7.25
76238;PMS7003;65043;48.392;-4.472;2022-12-07T05:38:18;14.00;9.25;5.25
76238;PMS7003;65043;48.392;-4.472;2022-12-07T05:40:43;14.25;11.50;7.25
76238;PMS7003;65043;48.392;-4.472;2022-12-07T05:43:09;13.00;12.25;8.00
76238;PMS7003;65043;48.392;-4.472;2022-12-07T05:45:35;14.25;10.75;7.00
76238;PMS7003;65043;48.392;-4.472;2022-12-07T05:48:00;12.75;9.00;7.00
76238;PMS7003;65043;48.392;-4.472;2022-12-07T05:50:25;14.00;11.25;5.25
76238;PMS7003;65043;48.392;-4.472;2022-12-07T05:52:52;12.25;9.50;5.50
76238;PMS7003;65043;48.392;-4.472;2022-12-07T05:55:18;9.00;8.25;5.00
76238;PMS7003;65043;48.392;-4.472;2022-12-07T05:57:43;9.75;9.50;6.75
76238;PMS7003;65043;48.392;-4.472;2022-12-07T06:00:28;11.75;7.00;4.00
76238;PMS7003;65043;48.392;-4.472;2022-12-07T06:02:54;12.00;8.50;4.00
76238;PMS7003;65043;48.392;-4.472;2022-12-07T06:05:19;11.50;7.50;5.25
76238;PMS7003;65043;48.392;-4.472;2022-12-07T06:07:45;8.25;6.75;4.50
76238;PMS7003;65043;48.392;-4.472;2022-12-07T06:10:10;9.50;7.25;4.00
76238;PMS7003;65043;48.392;-4.472;2022-12-07T06:12:35;8.00;8.00;6.00
76238;PMS7003;65043;48.392;-4.472;2022-12-07T06:15:03;7.25;5.50;4.00
76238;PMS7003;65043;48.392;-4.472;2022-12-07T06:17:29;14.00;6.00;3.00
76238;PMS7003;65043;48.392;-4.472;2022-12-07T06:19:54;8.00;6.00;3.00
76238;PMS7003;65043;48.392;-4.472;2022-12-07T06:22:20;5.00;3.50;3.00
76238;PMS7003;65043;48.392;-4.472;2022-12-07T06:24:45;8.50;5.00;3.50
76238;PMS7003;65043;48.392;-4.472;2022-12-07T06:27:10;7.25;5.00;3.50
76238;PMS7003;65043;48.392;-4.472;2022-12-07T06:29:36;8.00;7.00;4.00
76238;PMS7003;65043;48.392;-4.472;2022-12-07T06:32:02;9.75;7.75;4.00
76238;PMS7003;65043;48.392;-4.472;2022-12-07T06:34:27;6.75;5.00;3.50
76238;PMS7003;65043;48.392;-4.472;2022-12-07T06:36:53;9.25;6.00;4.00
76238;PMS7003;65043;48.392;-4.472;2022-12-07T06:39:24;10.75;7.00;4.00
76238;PMS7003;65043;48.392;-4.472;2022-12-07T06:41:51;8.00;5.50;3.50
76238;PMS7003;65043;48.392;-4.472;2022-12-07T06:44:17;10.50;7.00;3.25
76238;PMS7003;65043;48.392;-4.472;2022-12-07T06:46:43;4.75;4.75;3.75
76238;PMS7003;65043;48.392;-4.472;2022-12-07T06:49:09;8.25;5.50;2.50
76238;PMS7003;65043;48.392;-4.472;2022-12-07T06:51:34;6.25;6.25;3.00
76238;PMS7003;65043;48.392;-4.472;2022-12-07T06:54:01;9.00;7.00;4.00
76238;PMS7003;65043;48.392;-4.472;2022-12-07T06:56:28;8.75;7.25;4.00
76238;PMS7003;65043;48.392;-4.472;2022-12-07T06:58:54;6.75;6.75;4.00
76238;PMS7003;65043;48.392;-4.472;2022-12-07T07:01:19;10.00;7.25;4.00
76238;PMS7003;65043;48.392;-4.472;2022-12-07T07:03:45;9.00;7.50;4.00
76238;PMS7003;65043;48.392;-4.472;2022-12-07T07:06:11;10.50;6.50;3.00
76238;PMS7003;65043;48.392;-4.472;2022-12-07T07:08:37;7.00;6.00;3.50
76238;PMS7003;65043;48.392;-4.472;2022-12-07T07:11:03;7.00;3.00;3.00
76238;PMS7003;65043;48.392;-4.472;2022-12-07T07:13:30;9.00;5.00;3.25
76238;PMS7003;65043;48.392;-4.472;2022-12-07T07:15:55;7.25;6.50;3.25
76238;PMS7003;65043;48.392;-4.472;2022-12-07T07:18:21;5.50;5.50;4.00
76238;PMS7003;65043;48.392;-4.472;2022-12-07T07:20:47;8.00;7.00;4.00
76238;PMS7003;65043;48.392;-4.472;2022-12-07T07:23:12;6.25;6.25;3.50
76238;PMS7003;65043;48.392;-4.472;2022-12-07T07:25:38;9.25;7.00;5.00
76238;PMS7003;65043;48.392;-4.472;2022-12-07T07:28:03;10.25;8.00;5.00
76238;PMS7003;65043;48.392;-4.472;2022-12-07T07:30:29;9.75;5.25;3.00
76238;PMS7003;65043;48.392;-4.472;2022-12-07T07:32:58;10.75;10.75;7.25
76238;PMS7003;65043;48.392;-4.472;2022-12-07T07:35:28;14.25;10.00;6.00
76238;PMS7003;65043;48.392;-4.472;2022-12-07T07:37:56;12.25;9.25;7.00
76238;PMS7003;65043;48.392;-4.472;2022-12-07T07:40:21;15.25;9.75;6.50
76238;PMS7003;65043;48.392;-4.472;2022-12-07T07:42:50;10.00;8.75;5.50
76238;PMS7003;65043;48.392;-4.472;2022-12-07T07:45:17;9.00;9.00;7.25
76238;PMS7003;65043;48.392;-4.472;2022-12-07T07:47:44;8.00;8.00;5.25
76238;PMS7003;65043;48.392;-4.472;2022-12-07T07:50:09;52.75;39.75;21.50
76238;PMS7003;65043;48.392;-4.472;2022-12-07T07:52:35;58.75;40.00;24.25
76238;PMS7003;65043;48.392;-4.472;2022-12-07T07:55:00;37.75;32.00;19.25
76238;PMS7003;65043;48.392;-4.472;2022-12-07T07:57:26;50.25;42.50;26.00
76238;PMS7003;65043;48.392;-4.472;2022-12-07T07:59:52;25.75;21.50;13.00
76238;PMS7003;65043;48.392;-4.472;2022-12-07T08:02:18;9.75;9.00;7.75
76238;PMS7003;65043;48.392;-4.472;2022-12-07T08:04:44;8.25;8.00;5.25
76238;PMS7003;65043;48.392;-4.472;2022-12-07T08:07:10;7.25;5.25;3.25
76238;PMS7003;65043;48.392;-4.472;2022-12-07T08:09:37;7.00;4.75;3.00
76238;PMS7003;65043;48.392;-4.472;2022-12-07T08:12:02;10.25;8.00;4.25
76238;PMS7003;65043;48.392;-4.472;2022-12-07T08:14:28;7.50;7.00;4.00
76238;PMS7003;65043;48.392;-4.472;2022-12-07T08:16:54;11.25;10.50;7.25
76238;PMS7003;65043;48.392;-4.472;2022-12-07T08:19:19;12.25;8.25;5.25
76238;PMS7003;65043;48.392;-4.472;2022-12-07T08:21:45;9.75;8.25;5.00
76238;PMS7003;65043;48.392;-4.472;2022-12-07T08:24:10;8.50;8.00;5.00
76238;PMS7003;65043;48.392;-4.472;2022-12-07T08:26:35;12.75;10.50;7.50
76238;PMS7003;65043;48.392;-4.472;2022-12-07T08:29:01;12.75;11.50;8.00
76238;PMS7003;65043;48.392;-4.472;2022-12-07T08:31:26;9.75;8.50;7.00
76238;PMS7003;65043;48.392;-4.472;2022-12-07T08:33:53;17.00;10.50;7.75
76238;PMS7003;65043;48.392;-4.472;2022-12-07T08:36:18;10.25;9.75;8.00
76238;PMS7003;65043;48.392;-4.472;2022-12-07T08:38:44;14.25;11.25;8.50
76238;PMS7003;65043;48.392;-4.472;2022-12-07T08:41:10;14.00;12.25;8.50
76238;PMS7003;65043;48.392;-4.472;2022-12-07T08:43:35;16.00;11.00;8.25
76238;PMS7003;65043;48.392;-4.472;2022-12-07T08:48:52;16.75;14.00;6.50
76238;PMS7003;65043;48.392;-4.472;2022-12-07T08:51:22;14.00;10.75;8.00
76238;PMS7003;65043;48.392;-4.472;2022-12-07T08:53:48;17.75;13.25;8.25
76238;PMS7003;65043;48.392;-4.472;2022-12-07T08:56:16;16.00;13.75;8.00
76238;PMS7003;65043;48.392;-4.472;2022-12-07T08:58:41;11.00;11.00;8.00
76238;PMS7003;65043;48.392;-4.472;2022-12-07T09:01:07;12.50;11.75;9.00
76238;PMS7003;65043;48.392;-4.472;2022-12-07T09:03:33;16.00;14.25;9.00
76238;PMS7003;65043;48.392;-4.472;2022-12-07T09:05:58;11.75;10.00;8.00
76238;PMS7003;65043;48.392;-4.472;2022-12-07T09:08:26;17.00;14.75;10.00
76238;PMS7003;65043;48.392;-4.472;2022-12-07T09:10:56;15.00;14.50;9.50
76238;PMS7003;65043;48.392;-4.472;2022-12-07T09:13:21;19.00;17.25;10.75
76238;PMS7003;65043;48.392;-4.472;2022-12-07T09:15:47;20.75;16.25;10.75
76238;PMS7003;65043;48.392;-4.472;2022-12-07T09:18:13;17.50;16.25;11.00
76238;PMS7003;65043;48.392;-4.472;2022-12-07T09:20:38;21.75;18.25;10.50
76238;PMS7003;65043;48.392;-4.472;2022-12-07T09:23:05;22.25;20.50;14.00
76238;PMS7003;65043;48.392;-4.472;2022-12-07T09:25:31;67.75;53.75;34.00
76238;PMS7003;65043;48.392;-4.472;2022-12-07T09:27:57;52.00;43.00;27.00
76238;PMS7003;65043;48.392;-4.472;2022-12-07T09:30:24;81.25;58.25;36.00
76238;PMS7003;65043;48.392;-4.472;2022-12-07T09:32:50;33.25;29.00;20.75
76238;PMS7003;65043;48.392;-4.472;2022-12-07T09:35:18;29.75;24.00;15.00
76238;PMS7003;65043;48.392;-4.472;2022-12-07T09:37:44;22.50;20.75;14.75
76238;PMS7003;65043;48.392;-4.472;2022-12-07T09:40:11;27.75;23.50;14.50
76238;PMS7003;65043;48.392;-4.472;2022-12-07T09:42:38;28.25;22.75;14.50
76238;PMS7003;65043;48.392;-4.472;2022-12-07T09:45:11;25.00;21.25;14.25
76238;PMS7003;65043;48.392;-4.472;2022-12-07T09:47:40;18.00;16.75;10.25
76238;PMS7003;65043;48.392;-4.472;2022-12-07T09:50:07;23.25;17.50;14.25
76238;PMS7003;65043;48.392;-4.472;2022-12-07T09:52:38;18.25;14.75;8.75
76238;PMS7003;65043;48.392;-4.472;2022-12-07T09:55:47;16.75;16.00;11.50
76238;PMS7003;65043;48.392;-4.472;2022-12-07T09:57:54;11.00;10.50;10.50
76238;PMS7003;65043;48.392;-4.472;2022-12-07T10:00:21;21.25;17.50;14.00
76238;PMS7003;65043;48.392;-4.472;2022-12-07T10:05:46;21.25;19.50;12.75
76238;PMS7003;65043;48.392;-4.472;2022-12-07T10:08:14;20.75;18.50;12.25
76238;PMS7003;65043;48.392;-4.472;2022-12-07T10:10:43;19.50;17.75;12.75
76238;PMS7003;65043;48.392;-4.472;2022-12-07T10:13:19;18.00;16.75;12.75
76238;PMS7003;65043;48.392;-4.472;2022-12-07T10:15:52;19.50;18.25;12.50
76238;PMS7003;65043;48.392;-4.472;2022-12-07T10:18:34;23.25;17.25;12.50
76238;PMS7003;65043;48.392;-4.472;2022-12-07T10:23:41;22.50;17.75;12.75
76238;PMS7003;65043;48.392;-4.472;2022-12-07T10:29:22;21.75;18.75;14.00
76238;PMS7003;65043;48.392;-4.472;2022-12-07T10:31:58;21.75;17.75;12.75
76238;PMS7003;65043;48.392;-4.472;2022-12-07T10:34:30;22.50;20.50;12.50
76238;PMS7003;65043;48.392;-4.472;2022-12-07T10:37:07;18.00;17.00;12.75
76238;PMS7003;65043;48.392;-4.472;2022-12-07T10:44:44;24.25;21.75;15.50
76238;PMS7003;65043;48.392;-4.472;2022-12-07T10:50:27;21.00;18.75;12.50
76238;PMS7003;65043;48.392;-4.472;2022-12-07T10:53:05;23.50;17.75;11.50
76238;PMS7003;65043;48.392;-4.472;2022-12-07T11:01:10;20.25;16.50;9.25
76238;PMS7003;65043;48.392;-4.472;2022-12-07T11:03:54;18.00;15.00;10.25
76238;PMS7003;65043;48.392;-4.472;2022-12-07T11:17:08;20.50;16.50;11.25
76238;PMS7003;65043;48.392;-4.472;2022-12-07T11:19:46;17.25;16.00;10.25
76238;PMS7003;65043;48.392;-4.472;2022-12-07T11:25:32;16.00;15.00;11.00
76238;PMS7003;65043;48.392;-4.472;2022-12-07T11:33:51;16.25;15.75;10.50
76238;PMS7003;65043;48.392;-4.472;2022-12-07T11:36:40;431.75;344.75;169.00
76238;PMS7003;65043;48.392;-4.472;2022-12-07T11:41:43;308.75;247.00;122.75
76238;PMS7003;65043;48.392;-4.472;2022-12-07T11:44:22;78.50;60.25;38.25
76238;PMS7003;65043;48.392;-4.472;2022-12-07T11:46:51;56.00;44.50;28.00
76238;PMS7003;65043;48.392;-4.472;2022-12-07T11:49:26;52.25;40.25;25.50
76238;PMS7003;65043;48.392;-4.472;2022-12-07T11:51:53;34.25;30.75;19.50
76238;PMS7003;65043;48.392;-4.472;2022-12-07T11:54:29;33.00;29.00;17.00
76238;PMS7003;65043;48.392;-4.472;2022-12-07T11:57:02;29.00;26.75;17.00
76238;PMS7003;65043;48.392;-4.472;2022-12-07T11:59:42;23.25;20.50;15.75
76238;PMS7003;65043;48.392;-4.472;2022-12-07T12:02:15;24.25;21.25;13.25
76238;PMS7003;65043;48.392;-4.472;2022-12-07T12:04:55;23.25;20.25;16.00
76238;PMS7003;65043;48.392;-4.472;2022-12-07T12:07:27;23.50;18.25;12.25
76238;PMS7003;65043;48.392;-4.472;2022-12-07T12:09:54;21.00;20.50;13.00
76238;PMS7003;65043;48.392;-4.472;2022-12-07T12:12:41;24.25;19.25;13.00
76238;PMS7003;65043;48.392;-4.472;2022-12-07T12:20:51;23.00;19.00;13.00
76238;PMS7003;65043;48.392;-4.472;2022-12-07T12:23:23;13.75;10.75;4.75
76238;PMS7003;65043;48.392;-4.472;2022-12-07T12:26:03;22.50;18.00;10.00
76238;PMS7003;65043;48.392;-4.472;2022-12-07T12:28:39;15.25;14.25;10.50
76238;PMS7003;65043;48.392;-4.472;2022-12-07T12:33:58;18.50;14.75;8.50
76238;PMS7003;65043;48.392;-4.472;2022-12-07T12:44:01;16.50;14.00;10.00
76238;PMS7003;65043;48.392;-4.472;2022-12-07T12:49:16;24.25;21.00;12.25
76238;PMS7003;65043;48.392;-4.472;2022-12-07T12:51:58;19.00;13.50;9.00
76238;PMS7003;65043;48.392;-4.472;2022-12-07T12:54:35;14.75;12.00;9.00
76238;PMS7003;65043;48.392;-4.472;2022-12-07T12:57:19;12.50;12.00;9.00
76238;PMS7003;65043;48.392;-4.472;2022-12-07T13:02:36;12.50;10.50;8.00
76238;PMS7003;65043;48.392;-4.472;2022-12-07T13:24:16;12.00;12.00;7.25
76238;PMS7003;65043;48.392;-4.472;2022-12-07T13:34:31;14.75;14.25;9.75
76238;PMS7003;65043;48.392;-4.472;2022-12-07T13:37:02;17.50;16.00;9.75
76238;PMS7003;65043;48.392;-4.472;2022-12-07T13:39:35;17.75;13.00;9.25
76238;PMS7003;65043;48.392;-4.472;2022-12-07T13:42:35;16.50;13.50;8.00
76238;PMS7003;65043;48.392;-4.472;2022-12-07T13:45:01;14.00;12.25;10.00
76238;PMS7003;65043;48.392;-4.472;2022-12-07T13:47:51;12.00;11.00;7.00
76238;PMS7003;65043;48.392;-4.472;2022-12-07T13:50:29;18.00;14.00;10.00
76238;PMS7003;65043;48.392;-4.472;2022-12-07T13:52:57;14.00;11.50;6.25
76238;PMS7003;65043;48.392;-4.472;2022-12-07T13:55:24;98.25;82.25;45.75
76238;PMS7003;65043;48.392;-4.472;2022-12-07T13:57:51;276.00;220.00;108.25
76238;PMS7003;65043;48.392;-4.472;2022-12-07T14:00:19;393.75;317.00;150.75
76238;PMS7003;65043;48.392;-4.472;2022-12-07T14:03:00;283.50;238.25;120.25
76238;PMS7003;65043;48.392;-4.472;2022-12-07T14:12:49;65.50;49.50;30.50
76238;PMS7003;65043;48.392;-4.472;2022-12-07T14:15:22;50.50;37.00;24.25
76238;PMS7003;65043;48.392;-4.472;2022-12-07T14:17:59;39.50;32.75;20.00
76238;PMS7003;65043;48.392;-4.472;2022-12-07T14:22:58;37.75;32.50;20.00
76238;PMS7003;65043;48.392;-4.472;2022-12-07T14:25:24;26.25;18.25;12.00
76238;PMS7003;65043;48.392;-4.472;2022-12-07T14:27:59;29.00;22.50;14.50
76238;PMS7003;65043;48.392;-4.472;2022-12-07T14:30:27;22.00;17.25;11.00
76238;PMS7003;65043;48.392;-4.472;2022-12-07T14:33:00;17.50;15.00;8.25
76238;PMS7003;65043;48.392;-4.472;2022-12-07T14:35:28;18.50;17.25;11.25
76238;PMS7003;65043;48.392;-4.472;2022-12-07T14:37:55;14.25;12.50;9.00
76238;PMS7003;65043;48.392;-4.472;2022-12-07T14:40:25;9.75;9.75;6.00
76238;PMS7003;65043;48.392;-4.472;2022-12-07T14:43:02;7.50;7.50;6.25
76238;PMS7003;65043;48.392;-4.472;2022-12-07T14:45:31;11.00;10.00;6.00
76238;PMS7003;65043;48.392;-4.472;2022-12-07T14:47:57;12.25;11.25;7.00
76238;PMS7003;65043;48.392;-4.472;2022-12-07T14:50:22;11.25;11.00;6.00
76238;PMS7003;65043;48.392;-4.472;2022-12-07T14:52:49;6.00;6.00;6.00
76238;PMS7003;65043;48.392;-4.472;2022-12-07T14:57:55;11.00;10.25;6.00
76238;PMS7003;65043;48.392;-4.472;2022-12-07T15:00:22;8.50;7.50;5.00
76238;PMS7003;65043;48.392;-4.472;2022-12-07T15:02:50;6.75;5.75;4.25
76238;PMS7003;65043;48.392;-4.472;2022-12-07T15:05:16;9.25;6.75;4.50
76238;PMS7003;65043;48.392;-4.472;2022-12-07T15:07:42;10.50;8.50;5.50
76238;PMS7003;65043;48.392;-4.472;2022-12-07T15:10:13;11.50;7.25;5.00
76238;PMS7003;65043;48.392;-4.472;2022-12-07T15:12:42;12.25;9.75;6.00
76238;PMS7003;65043;48.392;-4.472;2022-12-07T15:15:08;12.50;11.00;7.00
76238;PMS7003;65043;48.392;-4.472;2022-12-07T15:17:34;13.25;12.75;8.25
76238;PMS7003;65043;48.392;-4.472;2022-12-07T15:20:00;13.00;11.25;8.00
76238;PMS7003;65043;48.392;-4.472;2022-12-07T15:22:26;15.25;12.25;8.25
76238;PMS7003;65043;48.392;-4.472;2022-12-07T15:24:51;13.25;12.50;8.00
76238;PMS7003;65043;48.392;-4.472;2022-12-07T15:27:17;8.50;6.25;6.00
76238;PMS7003;65043;48.392;-4.472;2022-12-07T15:29:42;11.75;11.75;7.00
76238;PMS7003;65043;48.392;-4.472;2022-12-07T15:32:07;10.00;10.00;6.00
76238;PMS7003;65043;48.392;-4.472;2022-12-07T15:34:33;13.00;13.00;7.25
76238;PMS7003;65043;48.392;-4.472;2022-12-07T15:36:59;17.00;7.50;4.00
76238;PMS7003;65043;48.392;-4.472;2022-12-07T15:39:24;11.25;8.75;6.00
76238;PMS7003;65043;48.392;-4.472;2022-12-07T15:41:50;9.75;6.00;5.25
76238;PMS7003;65043;48.392;-4.472;2022-12-07T15:44:15;265.25;227.25;131.00
76238;PMS7003;65043;48.392;-4.472;2022-12-07T15:47:00;291.00;234.75;108.00
76238;PMS7003;65043;48.392;-4.472;2022-12-07T15:49:26;78.00;57.75;34.25
76238;PMS7003;65043;48.392;-4.472;2022-12-07T15:51:51;65.00;49.00;30.50
76238;PMS7003;65043;48.392;-4.472;2022-12-07T15:54:21;185.25;153.75;88.00
76238;PMS7003;65043;48.392;-4.472;2022-12-07T15:56:48;55.00;41.75;25.00
76238;PMS7003;65043;48.392;-4.472;2022-12-07T15:59:14;37.75;32.00;19.50
76238;PMS7003;65043;48.392;-4.472;2022-12-07T16:01:39;27.00;19.75;13.00
76238;PMS7003;65043;48.392;-4.472;2022-12-07T16:04:05;23.00;19.00;11.75
76238;PMS7003;65043;48.392;-4.472;2022-12-07T16:06:30;16.00;13.00;9.25
76238;PMS7003;65043;48.392;-4.472;2022-12-07T16:08:56;15.25;15.25;10.00
76238;PMS7003;65043;48.392;-4.472;2022-12-07T16:11:21;18.75;17.25;11.00
76238;PMS7003;65043;48.392;-4.472;2022-12-07T16:13:47;19.50;13.25;9.25